UAL2703 KPBI-KIAD
Flight info
| Callsign | UAL2703 |
|---|---|
| Flight time | 1h 53m |
| Altitude | 35000 |
| Route | SLIDZ3 LENDS GRUBR Y299 SEELO GARIC Q129 YERBA MAYKR TRSSK CAVLR6 |
| Aircraft | A320/M-SDE3FGHIRWY/LB1 |
Departure
| Time | 2026-04-23 22:22 |
|---|---|
| Airport | Palm Beach International Airport (KPBI) |
Arrival
| Time | 2026-04-24 00:16 |
|---|---|
| Airport | Washington Dulles International Airport (KIAD) |
| Time | Latitude | Longitude | Altitude | Speed | Heading |
|---|---|---|---|---|---|
| 2026-04-23 21:51 | 26.68691 | -80.09250 | 22 ft | 0 kts | 318° |
| 2026-04-23 22:10 | 26.68679 | -80.09237 | 23 ft | 4 kts | 318° |
| 2026-04-23 22:10 | 26.68659 | -80.09217 | 24 ft | 4 kts | 313° |
| 2026-04-23 22:10 | 26.68642 | -80.09194 | 22 ft | 4 kts | 294° |
| 2026-04-23 22:11 | 26.68639 | -80.09168 | 23 ft | 4 kts | 238° |
| 2026-04-23 22:11 | 26.68642 | -80.09163 | 23 ft | 0 kts | 227° |
| 2026-04-23 22:14 | 26.68637 | -80.09168 | 23 ft | 2 kts | 227° |
| 2026-04-23 22:14 | 26.68606 | -80.09207 | 22 ft | 10 kts | 227° |
| 2026-04-23 22:15 | 26.68560 | -80.09262 | 24 ft | 9 kts | 228° |
| 2026-04-23 22:15 | 26.68520 | -80.09313 | 22 ft | 8 kts | 229° |
| 2026-04-23 22:15 | 26.68483 | -80.09359 | 23 ft | 8 kts | 227° |
| 2026-04-23 22:15 | 26.68434 | -80.09381 | 22 ft | 7 kts | 171° |
| 2026-04-23 22:16 | 26.68379 | -80.09379 | 22 ft | 8 kts | 192° |
| 2026-04-23 22:16 | 26.68372 | -80.09434 | 22 ft | 8 kts | 272° |
| 2026-04-23 22:16 | 26.68374 | -80.09501 | 22 ft | 10 kts | 272° |
| 2026-04-23 22:16 | 26.68377 | -80.09584 | 22 ft | 11 kts | 272° |
| 2026-04-23 22:17 | 26.68380 | -80.09674 | 22 ft | 12 kts | 274° |
| 2026-04-23 22:17 | 26.68390 | -80.09769 | 22 ft | 12 kts | 278° |
| 2026-04-23 22:17 | 26.68396 | -80.09867 | 22 ft | 13 kts | 269° |
| 2026-04-23 22:17 | 26.68394 | -80.09971 | 22 ft | 14 kts | 270° |
| 2026-04-23 22:18 | 26.68398 | -80.10078 | 21 ft | 14 kts | 272° |
| 2026-04-23 22:18 | 26.68403 | -80.10188 | 21 ft | 14 kts | 273° |
| 2026-04-23 22:18 | 26.68408 | -80.10302 | 24 ft | 15 kts | 273° |
| 2026-04-23 22:18 | 26.68414 | -80.10419 | 21 ft | 15 kts | 273° |
| 2026-04-23 22:19 | 26.68419 | -80.10541 | 21 ft | 16 kts | 272° |
| 2026-04-23 22:19 | 26.68424 | -80.10661 | 21 ft | 15 kts | 273° |
| 2026-04-23 22:19 | 26.68429 | -80.10761 | 21 ft | 9 kts | 272° |
| 2026-04-23 22:19 | 26.68429 | -80.10789 | 21 ft | 0 kts | 266° |
| 2026-04-23 22:20 | 26.68429 | -80.10790 | 21 ft | 1 kts | 265° |
| 2026-04-23 22:20 | 26.68412 | -80.10819 | 23 ft | 8 kts | 217° |
| 2026-04-23 22:21 | 26.68360 | -80.10826 | 21 ft | 8 kts | 179° |
| 2026-04-23 22:21 | 26.68318 | -80.10792 | 24 ft | 9 kts | 101° |
| 2026-04-23 22:21 | 26.68317 | -80.10744 | 21 ft | 0 kts | 91° |
| 2026-04-23 22:21 | 26.68316 | -80.10700 | 21 ft | 24 kts | 92° |
| 2026-04-23 22:22 | 26.68299 | -80.10268 | 22 ft | 86 kts | 92° |
| 2026-04-23 22:22 | 26.68260 | -80.09383 | 22 ft | 141 kts | 92° |
| 2026-04-23 22:22 | 26.68212 | -80.08133 | 190 ft | 173 kts | 92° |
| 2026-04-23 22:22 | 26.68185 | -80.06766 | 805 ft | 177 kts | 91° |
| 2026-04-23 22:23 | 26.68219 | -80.05403 | 1491 ft | 179 kts | 82° |
| 2026-04-23 22:23 | 26.68686 | -80.04113 | 2112 ft | 186 kts | 62° |
| 2026-04-23 22:23 | 26.69346 | -80.02772 | 2409 ft | 209 kts | 64° |
| 2026-04-23 22:23 | 26.70055 | -80.01251 | 2770 ft | 232 kts | 64° |
| 2026-04-23 22:24 | 26.70829 | -79.99575 | 3295 ft | 249 kts | 64° |
| 2026-04-23 22:24 | 26.71647 | -79.97835 | 4103 ft | 256 kts | 60° |
| 2026-04-23 22:24 | 26.72743 | -79.96243 | 4977 ft | 259 kts | 51° |
| 2026-04-23 22:24 | 26.73929 | -79.94694 | 5772 ft | 266 kts | 49° |
| 2026-04-23 22:25 | 26.75166 | -79.93111 | 6531 ft | 273 kts | 49° |
| 2026-04-23 22:25 | 26.76437 | -79.91495 | 7243 ft | 280 kts | 48° |
| 2026-04-23 22:25 | 26.77730 | -79.89845 | 7982 ft | 285 kts | 48° |
| 2026-04-23 22:25 | 26.79048 | -79.88154 | 8702 ft | 291 kts | 47° |
| 2026-04-23 22:26 | 26.80386 | -79.86430 | 9450 ft | 296 kts | 47° |
| 2026-04-23 22:26 | 26.81743 | -79.84671 | 10153 ft | 301 kts | 47° |
| 2026-04-23 22:26 | 26.83116 | -79.82888 | 10839 ft | 305 kts | 47° |
| 2026-04-23 22:26 | 26.84553 | -79.81023 | 11059 ft | 327 kts | 47° |
| 2026-04-23 22:27 | 26.86090 | -79.79027 | 11203 ft | 350 kts | 47° |
| 2026-04-23 22:27 | 26.87722 | -79.76909 | 11435 ft | 366 kts | 47° |
| 2026-04-23 22:27 | 26.89399 | -79.74731 | 11966 ft | 372 kts | 47° |
| 2026-04-23 22:27 | 26.91100 | -79.72520 | 12562 ft | 376 kts | 47° |
| 2026-04-23 22:28 | 26.92863 | -79.70342 | 13150 ft | 378 kts | 41° |
| 2026-04-23 22:28 | 26.94783 | -79.68308 | 13744 ft | 382 kts | 40° |
| 2026-04-23 22:28 | 26.96726 | -79.66258 | 14271 ft | 386 kts | 40° |
| 2026-04-23 22:28 | 26.98692 | -79.64189 | 14774 ft | 389 kts | 40° |
| 2026-04-23 22:29 | 27.00678 | -79.62100 | 15281 ft | 393 kts | 40° |
| 2026-04-23 22:29 | 27.02681 | -79.59990 | 15794 ft | 397 kts | 40° |
| 2026-04-23 22:29 | 27.04703 | -79.57856 | 16301 ft | 401 kts | 41° |
| 2026-04-23 22:29 | 27.06743 | -79.55700 | 16804 ft | 405 kts | 41° |
| 2026-04-23 22:30 | 27.08802 | -79.53520 | 17314 ft | 409 kts | 41° |
| 2026-04-23 22:30 | 27.10877 | -79.51324 | 17857 ft | 412 kts | 41° |
| 2026-04-23 22:30 | 27.12972 | -79.49106 | 18374 ft | 415 kts | 41° |
| 2026-04-23 22:30 | 27.15083 | -79.46873 | 18823 ft | 419 kts | 41° |
| 2026-04-23 22:31 | 27.17211 | -79.44622 | 19290 ft | 422 kts | 41° |
| 2026-04-23 22:31 | 27.19356 | -79.42353 | 19752 ft | 425 kts | 41° |
| 2026-04-23 22:31 | 27.21516 | -79.40067 | 20202 ft | 428 kts | 41° |
| 2026-04-23 22:31 | 27.23687 | -79.37766 | 20639 ft | 431 kts | 41° |
| 2026-04-23 22:32 | 27.25874 | -79.35445 | 21070 ft | 434 kts | 41° |
| 2026-04-23 22:32 | 27.28071 | -79.33106 | 21486 ft | 436 kts | 41° |
| 2026-04-23 22:32 | 27.30281 | -79.30751 | 21882 ft | 439 kts | 41° |
| 2026-04-23 22:32 | 27.32503 | -79.28383 | 22284 ft | 442 kts | 40° |
| 2026-04-23 22:33 | 27.34741 | -79.26003 | 22669 ft | 444 kts | 40° |
| 2026-04-23 22:33 | 27.36995 | -79.23610 | 23052 ft | 447 kts | 40° |
| 2026-04-23 22:33 | 27.39261 | -79.21199 | 23433 ft | 449 kts | 40° |
| 2026-04-23 22:33 | 27.41533 | -79.18774 | 23774 ft | 452 kts | 40° |
| 2026-04-23 22:34 | 27.43825 | -79.16330 | 24069 ft | 455 kts | 40° |
| 2026-04-23 22:34 | 27.46126 | -79.13877 | 24362 ft | 457 kts | 40° |
| 2026-04-23 22:34 | 27.48442 | -79.11408 | 24658 ft | 460 kts | 40° |
| 2026-04-23 22:34 | 27.50769 | -79.08924 | 24945 ft | 462 kts | 40° |
| 2026-04-23 22:35 | 27.52349 | -79.07234 | 25144 ft | 464 kts | 40° |
| 2026-04-23 22:35 | 27.54661 | -79.04757 | 25415 ft | 467 kts | 40° |
| 2026-04-23 22:35 | 27.57021 | -79.02227 | 25690 ft | 469 kts | 40° |
| 2026-04-23 22:35 | 27.59423 | -78.99648 | 25968 ft | 472 kts | 40° |
| 2026-04-23 22:36 | 27.61809 | -78.97090 | 26248 ft | 475 kts | 40° |
| 2026-04-23 22:36 | 27.64323 | -78.94687 | 26533 ft | 473 kts | 31° |
| 2026-04-23 22:36 | 27.67103 | -78.92737 | 26805 ft | 469 kts | 22° |
| 2026-04-23 22:36 | 27.70081 | -78.91283 | 27073 ft | 465 kts | 14° |
| 2026-04-23 22:37 | 27.73194 | -78.90339 | 27334 ft | 461 kts | 5° |
| 2026-04-23 22:37 | 27.76318 | -78.89846 | 27596 ft | 460 kts | 1° |
| 2026-04-23 22:37 | 27.79500 | -78.89404 | 27863 ft | 462 kts | 1° |
| 2026-04-23 22:37 | 27.82696 | -78.88956 | 28130 ft | 464 kts | 1° |
| 2026-04-23 22:38 | 27.85901 | -78.88507 | 28395 ft | 465 kts | 1° |
| 2026-04-23 22:38 | 27.89121 | -78.88054 | 28656 ft | 467 kts | 1° |
| 2026-04-23 22:38 | 27.92347 | -78.87599 | 28954 ft | 468 kts | 1° |
| 2026-04-23 22:38 | 27.95570 | -78.87142 | 29387 ft | 465 kts | 1° |
| 2026-04-23 22:39 | 27.98772 | -78.86687 | 29802 ft | 463 kts | 1° |
| 2026-04-23 22:39 | 28.01968 | -78.86233 | 30193 ft | 462 kts | 1° |
| 2026-04-23 22:39 | 28.05154 | -78.85786 | 30514 ft | 461 kts | 0° |
| 2026-04-23 22:39 | 28.08335 | -78.85341 | 30811 ft | 461 kts | 0° |
| 2026-04-23 22:40 | 28.11514 | -78.84893 | 31110 ft | 461 kts | 0° |
| 2026-04-23 22:40 | 28.14695 | -78.84447 | 31410 ft | 460 kts | 0° |
| 2026-04-23 22:40 | 28.21051 | -78.83551 | 32031 ft | 460 kts | 0° |
| 2026-04-23 22:41 | 28.24225 | -78.83095 | 32372 ft | 459 kts | 0° |
| 2026-04-23 22:41 | 28.27390 | -78.82643 | 32704 ft | 458 kts | 360° |
| 2026-04-23 22:41 | 28.30546 | -78.82196 | 33027 ft | 457 kts | 360° |
| 2026-04-23 22:41 | 28.33704 | -78.81751 | 33340 ft | 457 kts | 359° |
| 2026-04-23 22:42 | 28.36855 | -78.81305 | 33658 ft | 456 kts | 359° |
| 2026-04-23 22:42 | 28.40003 | -78.80857 | 33978 ft | 456 kts | 359° |
| 2026-04-23 22:42 | 28.43150 | -78.80410 | 34273 ft | 455 kts | 359° |
| 2026-04-23 22:42 | 28.46291 | -78.79964 | 34549 ft | 455 kts | 359° |
| 2026-04-23 22:43 | 28.49434 | -78.79515 | 34849 ft | 455 kts | 360° |
| 2026-04-23 22:43 | 28.52570 | -78.79067 | 35062 ft | 455 kts | 0° |
| 2026-04-23 22:43 | 28.55706 | -78.78618 | 35110 ft | 454 kts | 0° |
| 2026-04-23 22:44 | 28.61967 | -78.77720 | 35111 ft | 453 kts | 0° |
| 2026-04-23 22:44 | 28.68231 | -78.76834 | 35111 ft | 453 kts | 0° |
| 2026-04-23 22:45 | 28.74483 | -78.75943 | 35111 ft | 453 kts | 0° |
| 2026-04-23 22:45 | 28.80746 | -78.75046 | 35116 ft | 454 kts | 1° |
| 2026-04-23 22:46 | 28.87011 | -78.74147 | 35109 ft | 454 kts | 1° |
| 2026-04-23 22:46 | 28.93278 | -78.73252 | 35109 ft | 454 kts | 1° |
| 2026-04-23 22:47 | 28.99547 | -78.72355 | 35108 ft | 454 kts | 1° |
| 2026-04-23 22:47 | 29.05819 | -78.71448 | 35107 ft | 454 kts | 1° |
| 2026-04-23 22:48 | 29.12094 | -78.70543 | 35120 ft | 454 kts | 3° |
| 2026-04-23 22:48 | 29.18366 | -78.69640 | 35115 ft | 455 kts | 3° |
| 2026-04-23 22:49 | 29.24643 | -78.68737 | 35117 ft | 455 kts | 3° |
| 2026-04-23 22:49 | 29.30882 | -78.67831 | 35120 ft | 455 kts | 3° |
| 2026-04-23 22:50 | 29.37160 | -78.66921 | 35129 ft | 455 kts | 4° |
| 2026-04-23 22:50 | 29.43476 | -78.66030 | 35126 ft | 454 kts | 3° |
| 2026-04-23 22:51 | 29.49744 | -78.65162 | 35125 ft | 454 kts | 4° |
| 2026-04-23 22:51 | 29.56005 | -78.64282 | 35118 ft | 453 kts | 3° |
| 2026-04-23 22:52 | 29.62273 | -78.63398 | 35116 ft | 454 kts | 4° |
| 2026-04-23 22:52 | 29.68533 | -78.62511 | 35126 ft | 453 kts | 4° |
| 2026-04-23 22:53 | 29.74790 | -78.61618 | 35125 ft | 453 kts | 4° |
| 2026-04-23 22:53 | 29.81036 | -78.60732 | 35122 ft | 452 kts | 4° |
| 2026-04-23 22:54 | 29.87249 | -78.59848 | 35121 ft | 452 kts | 4° |
| 2026-04-23 22:54 | 29.93498 | -78.58978 | 35135 ft | 452 kts | 4° |
| 2026-04-23 22:55 | 29.99782 | -78.58088 | 35133 ft | 452 kts | 4° |
| 2026-04-23 22:55 | 30.05976 | -78.57195 | 35135 ft | 451 kts | 4° |
| 2026-04-23 22:56 | 30.12201 | -78.56301 | 35130 ft | 451 kts | 4° |
| 2026-04-23 22:56 | 30.18429 | -78.55416 | 35125 ft | 451 kts | 4° |
| 2026-04-23 22:57 | 30.24655 | -78.54534 | 35124 ft | 451 kts | 4° |
| 2026-04-23 22:57 | 30.30879 | -78.53638 | 35120 ft | 451 kts | 4° |
| 2026-04-23 22:58 | 30.37102 | -78.52731 | 35119 ft | 451 kts | 4° |
| 2026-04-23 22:58 | 30.43327 | -78.51838 | 35118 ft | 451 kts | 4° |
| 2026-04-23 22:59 | 30.49541 | -78.50866 | 35108 ft | 450 kts | 5° |
| 2026-04-23 22:59 | 30.55743 | -78.49837 | 35116 ft | 450 kts | 5° |
| 2026-04-23 23:00 | 30.61938 | -78.48810 | 35114 ft | 449 kts | 5° |
| 2026-04-23 23:00 | 30.68131 | -78.47807 | 35110 ft | 449 kts | 5° |
| 2026-04-23 23:01 | 30.74321 | -78.46806 | 35121 ft | 449 kts | 5° |
| 2026-04-23 23:01 | 30.80506 | -78.45802 | 35120 ft | 449 kts | 5° |
| 2026-04-23 23:02 | 30.86688 | -78.44788 | 35115 ft | 448 kts | 5° |
| 2026-04-23 23:02 | 30.92864 | -78.43786 | 35113 ft | 448 kts | 5° |
| 2026-04-23 23:03 | 30.99039 | -78.42778 | 35109 ft | 448 kts | 5° |
| 2026-04-23 23:03 | 31.05202 | -78.41768 | 35115 ft | 447 kts | 5° |
| 2026-04-23 23:04 | 31.11361 | -78.40755 | 35113 ft | 447 kts | 5° |
| 2026-04-23 23:04 | 31.17514 | -78.39747 | 35110 ft | 446 kts | 5° |
| 2026-04-23 23:05 | 31.23661 | -78.38737 | 35102 ft | 446 kts | 5° |
| 2026-04-23 23:05 | 31.29808 | -78.37720 | 35108 ft | 446 kts | 5° |
| 2026-04-23 23:06 | 31.35945 | -78.36714 | 35113 ft | 445 kts | 5° |
| 2026-04-23 23:06 | 31.42076 | -78.35701 | 35108 ft | 445 kts | 5° |
| 2026-04-23 23:07 | 31.48198 | -78.34685 | 35104 ft | 444 kts | 5° |
| 2026-04-23 23:07 | 31.54321 | -78.33676 | 35102 ft | 444 kts | 5° |
| 2026-04-23 23:08 | 31.60439 | -78.32667 | 35105 ft | 443 kts | 5° |
| 2026-04-23 23:08 | 31.66502 | -78.31663 | 35100 ft | 443 kts | 5° |
| 2026-04-23 23:09 | 31.72602 | -78.30648 | 35097 ft | 443 kts | 5° |
| 2026-04-23 23:09 | 31.78696 | -78.29633 | 35095 ft | 442 kts | 5° |
| 2026-04-23 23:10 | 31.84788 | -78.28623 | 35099 ft | 442 kts | 5° |
| 2026-04-23 23:10 | 31.90873 | -78.27606 | 35096 ft | 441 kts | 6° |
| 2026-04-23 23:11 | 31.96951 | -78.26592 | 35092 ft | 441 kts | 5° |
| 2026-04-23 23:11 | 32.03020 | -78.25581 | 35089 ft | 441 kts | 5° |
| 2026-04-23 23:12 | 32.09098 | -78.24651 | 35089 ft | 440 kts | 4° |
| 2026-04-23 23:12 | 32.15176 | -78.23804 | 35087 ft | 440 kts | 4° |
| 2026-04-23 23:13 | 32.21254 | -78.22944 | 35087 ft | 440 kts | 4° |
| 2026-04-23 23:13 | 32.27326 | -78.22056 | 35085 ft | 440 kts | 5° |
| 2026-04-23 23:14 | 32.33397 | -78.21163 | 35081 ft | 440 kts | 5° |
| 2026-04-23 23:14 | 32.39467 | -78.20273 | 35082 ft | 440 kts | 5° |
| 2026-04-23 23:15 | 32.45537 | -78.19379 | 35081 ft | 440 kts | 5° |
| 2026-04-23 23:15 | 32.51606 | -78.18487 | 35075 ft | 440 kts | 5° |
| 2026-04-23 23:16 | 32.57678 | -78.17591 | 35072 ft | 440 kts | 5° |
| 2026-04-23 23:16 | 32.63749 | -78.16687 | 35074 ft | 440 kts | 5° |
| 2026-04-23 23:17 | 32.69816 | -78.15794 | 35076 ft | 439 kts | 4° |
| 2026-04-23 23:17 | 32.75884 | -78.14903 | 35072 ft | 439 kts | 5° |
| 2026-04-23 23:18 | 32.80924 | -78.14158 | 35062 ft | 439 kts | 5° |
| 2026-04-23 23:18 | 32.86990 | -78.13256 | 35064 ft | 439 kts | 5° |
| 2026-04-23 23:19 | 32.93055 | -78.12352 | 35061 ft | 439 kts | 5° |
| 2026-04-23 23:19 | 32.99124 | -78.11440 | 35061 ft | 439 kts | 5° |
| 2026-04-23 23:20 | 33.05188 | -78.10545 | 35058 ft | 439 kts | 4° |
| 2026-04-23 23:20 | 33.11256 | -78.09653 | 35067 ft | 439 kts | 4° |
| 2026-04-23 23:21 | 33.17323 | -78.08747 | 35059 ft | 439 kts | 5° |
| 2026-04-23 23:21 | 33.23389 | -78.07841 | 35053 ft | 439 kts | 5° |
| 2026-04-23 23:22 | 33.29456 | -78.06933 | 35056 ft | 439 kts | 5° |
| 2026-04-23 23:22 | 33.35522 | -78.06018 | 35047 ft | 439 kts | 5° |
| 2026-04-23 23:23 | 33.41589 | -78.05100 | 35056 ft | 439 kts | 5° |
| 2026-04-23 23:23 | 33.47650 | -78.04188 | 35049 ft | 439 kts | 5° |
| 2026-04-23 23:24 | 33.53705 | -78.03282 | 35036 ft | 439 kts | 5° |
| 2026-04-23 23:24 | 33.59762 | -78.02372 | 35035 ft | 439 kts | 5° |
| 2026-04-23 23:25 | 33.65818 | -78.01459 | 35045 ft | 439 kts | 5° |
| 2026-04-23 23:25 | 33.71873 | -78.00546 | 35044 ft | 438 kts | 5° |
| 2026-04-23 23:26 | 33.77926 | -77.99628 | 35035 ft | 438 kts | 5° |
| 2026-04-23 23:26 | 33.83971 | -77.98705 | 35030 ft | 438 kts | 5° |
| 2026-04-23 23:27 | 33.90025 | -77.98058 | 35032 ft | 436 kts | 359° |
| 2026-04-23 23:27 | 33.96095 | -77.97851 | 35028 ft | 436 kts | 359° |
| 2026-04-23 23:28 | 34.02161 | -77.97631 | 35021 ft | 436 kts | 359° |
| 2026-04-23 23:28 | 34.08230 | -77.97415 | 35021 ft | 436 kts | 359° |
| 2026-04-23 23:29 | 34.14298 | -77.97195 | 35009 ft | 436 kts | 360° |
| 2026-04-23 23:29 | 34.20367 | -77.96979 | 35006 ft | 437 kts | 360° |
| 2026-04-23 23:30 | 34.26443 | -77.96752 | 35000 ft | 437 kts | 360° |
| 2026-04-23 23:30 | 34.32520 | -77.96529 | 35002 ft | 437 kts | 360° |
| 2026-04-23 23:31 | 34.38595 | -77.96316 | 35004 ft | 437 kts | 360° |
| 2026-04-23 23:31 | 34.44633 | -77.96101 | 34996 ft | 437 kts | 360° |
| 2026-04-23 23:32 | 34.50716 | -77.95877 | 34988 ft | 437 kts | 0° |
| 2026-04-23 23:32 | 34.56804 | -77.95653 | 35003 ft | 437 kts | 360° |
| 2026-04-23 23:33 | 34.62890 | -77.95434 | 35000 ft | 437 kts | 360° |
| 2026-04-23 23:33 | 34.68977 | -77.95217 | 34999 ft | 438 kts | 360° |
| 2026-04-23 23:34 | 34.75063 | -77.94991 | 34997 ft | 437 kts | 360° |
| 2026-04-23 23:34 | 34.81148 | -77.94769 | 34995 ft | 438 kts | 360° |
| 2026-04-23 23:35 | 34.87235 | -77.94550 | 34995 ft | 438 kts | 360° |
| 2026-04-23 23:35 | 34.93322 | -77.94325 | 35005 ft | 438 kts | 360° |
| 2026-04-23 23:36 | 34.99413 | -77.94092 | 35000 ft | 437 kts | 360° |
| 2026-04-23 23:36 | 35.05496 | -77.93870 | 34999 ft | 437 kts | 360° |
| 2026-04-23 23:37 | 35.11577 | -77.93648 | 34999 ft | 437 kts | 360° |
| 2026-04-23 23:37 | 35.17658 | -77.93419 | 34987 ft | 437 kts | 360° |
| 2026-04-23 23:38 | 35.23746 | -77.93188 | 34981 ft | 437 kts | 360° |
| 2026-04-23 23:38 | 35.29827 | -77.92967 | 34979 ft | 437 kts | 359° |
| 2026-04-23 23:39 | 35.35907 | -77.92678 | 34981 ft | 438 kts | 1° |
| 2026-04-23 23:39 | 35.41984 | -77.92200 | 34998 ft | 438 kts | 2° |
| 2026-04-23 23:40 | 35.48063 | -77.91692 | 34997 ft | 438 kts | 1° |
| 2026-04-23 23:40 | 35.54145 | -77.91223 | 34997 ft | 438 kts | 1° |
| 2026-04-23 23:41 | 35.60226 | -77.90773 | 34992 ft | 438 kts | 1° |
| 2026-04-23 23:41 | 35.66303 | -77.90327 | 34987 ft | 437 kts | 1° |
| 2026-04-23 23:42 | 35.72379 | -77.89881 | 34988 ft | 437 kts | 1° |
| 2026-04-23 23:42 | 35.78414 | -77.89423 | 34986 ft | 437 kts | 1° |
| 2026-04-23 23:43 | 35.84489 | -77.88968 | 34984 ft | 437 kts | 1° |
| 2026-04-23 23:43 | 35.90562 | -77.88518 | 34990 ft | 437 kts | 1° |
| 2026-04-23 23:44 | 35.96637 | -77.88066 | 34989 ft | 437 kts | 1° |
| 2026-04-23 23:44 | 36.02704 | -77.87613 | 34986 ft | 437 kts | 1° |
| 2026-04-23 23:45 | 36.08772 | -77.87151 | 34979 ft | 437 kts | 1° |
| 2026-04-23 23:45 | 36.14833 | -77.86683 | 34984 ft | 436 kts | 1° |
| 2026-04-23 23:46 | 36.20884 | -77.86228 | 34984 ft | 435 kts | 1° |
| 2026-04-23 23:46 | 36.26931 | -77.85782 | 34973 ft | 435 kts | 1° |
| 2026-04-23 23:47 | 36.32975 | -77.85326 | 34970 ft | 435 kts | 1° |
| 2026-04-23 23:47 | 36.39018 | -77.84862 | 34972 ft | 435 kts | 1° |
| 2026-04-23 23:48 | 36.45054 | -77.84396 | 34970 ft | 434 kts | 1° |
| 2026-04-23 23:48 | 36.51086 | -77.84073 | 34968 ft | 433 kts | 358° |
| 2026-04-23 23:49 | 36.60126 | -77.84041 | 34996 ft | 433 kts | 357° |
| 2026-04-23 23:49 | 36.66143 | -77.84008 | 35014 ft | 432 kts | 358° |
| 2026-04-23 23:50 | 36.72108 | -77.83917 | 35007 ft | 431 kts | 358° |
| 2026-04-23 23:50 | 36.78108 | -77.83807 | 34998 ft | 431 kts | 358° |
| 2026-04-23 23:51 | 36.84102 | -77.83705 | 34990 ft | 431 kts | 358° |
| 2026-04-23 23:51 | 36.90090 | -77.83617 | 34961 ft | 430 kts | 358° |
| 2026-04-23 23:52 | 36.96069 | -77.83526 | 34958 ft | 429 kts | 358° |
| 2026-04-23 23:52 | 37.02040 | -77.83436 | 34954 ft | 429 kts | 358° |
| 2026-04-23 23:53 | 37.08014 | -77.83343 | 34954 ft | 429 kts | 358° |
| 2026-04-23 23:53 | 37.13979 | -77.83255 | 34967 ft | 428 kts | 358° |
| 2026-04-23 23:54 | 37.19934 | -77.83160 | 34966 ft | 428 kts | 358° |
| 2026-04-23 23:54 | 37.25919 | -77.83068 | 34964 ft | 427 kts | 358° |
| 2026-04-23 23:55 | 37.31824 | -77.82966 | 34963 ft | 427 kts | 358° |
| 2026-04-23 23:55 | 37.37762 | -77.82881 | 34974 ft | 426 kts | 357° |
| 2026-04-23 23:56 | 37.43691 | -77.82796 | 34968 ft | 426 kts | 357° |
| 2026-04-23 23:56 | 37.49509 | -77.82707 | 34957 ft | 406 kts | 357° |
| 2026-04-23 23:57 | 37.52287 | -77.82656 | 34917 ft | 394 kts | 357° |
| 2026-04-23 23:57 | 37.55044 | -77.82612 | 34112 ft | 402 kts | 357° |
| 2026-04-23 23:57 | 37.57891 | -77.82577 | 32992 ft | 415 kts | 357° |
| 2026-04-23 23:57 | 37.60815 | -77.82543 | 31840 ft | 427 kts | 358° |
| 2026-04-23 23:58 | 37.63825 | -77.82461 | 30701 ft | 439 kts | 2° |
| 2026-04-23 23:58 | 37.66859 | -77.81623 | 29488 ft | 455 kts | 18° |
| 2026-04-23 23:58 | 37.69811 | -77.80035 | 28160 ft | 466 kts | 21° |
| 2026-04-23 23:58 | 37.72800 | -77.78372 | 26874 ft | 473 kts | 21° |
| 2026-04-23 23:59 | 37.75831 | -77.76678 | 25620 ft | 479 kts | 22° |
| 2026-04-23 23:59 | 37.78896 | -77.74959 | 24410 ft | 484 kts | 22° |
| 2026-04-23 23:59 | 37.81983 | -77.73230 | 23179 ft | 487 kts | 22° |
| 2026-04-23 23:59 | 37.85085 | -77.71492 | 21915 ft | 486 kts | 22° |
| 2026-04-24 00:00 | 37.88127 | -77.69792 | 20723 ft | 471 kts | 22° |
| 2026-04-24 00:00 | 37.91091 | -77.68140 | 19520 ft | 460 kts | 22° |
| 2026-04-24 00:00 | 37.93991 | -77.66528 | 18391 ft | 450 kts | 22° |
| 2026-04-24 00:00 | 37.96830 | -77.64946 | 17165 ft | 440 kts | 22° |
| 2026-04-24 00:01 | 37.99592 | -77.63399 | 16137 ft | 427 kts | 22° |
| 2026-04-24 00:01 | 38.02235 | -77.61913 | 15543 ft | 406 kts | 22° |
| 2026-04-24 00:01 | 38.04761 | -77.60494 | 14956 ft | 388 kts | 21° |
| 2026-04-24 00:01 | 38.07169 | -77.59101 | 14375 ft | 373 kts | 23° |
| 2026-04-24 00:02 | 38.09458 | -77.57680 | 13811 ft | 359 kts | 24° |
| 2026-04-24 00:02 | 38.11646 | -77.56270 | 13204 ft | 347 kts | 24° |
| 2026-04-24 00:02 | 38.13050 | -77.55355 | 12836 ft | 339 kts | 24° |
| 2026-04-24 00:02 | 38.15112 | -77.54014 | 12306 ft | 328 kts | 24° |
| 2026-04-24 00:03 | 38.17112 | -77.52719 | 11788 ft | 318 kts | 23° |
| 2026-04-24 00:03 | 38.19061 | -77.51461 | 11282 ft | 310 kts | 23° |
| 2026-04-24 00:03 | 38.20967 | -77.50236 | 10776 ft | 304 kts | 23° |
| 2026-04-24 00:03 | 38.22835 | -77.49042 | 10286 ft | 298 kts | 22° |
| 2026-04-24 00:04 | 38.24720 | -77.48064 | 9912 ft | 289 kts | 12° |
| 2026-04-24 00:04 | 38.26650 | -77.47386 | 9455 ft | 284 kts | 11° |
| 2026-04-24 00:04 | 38.28521 | -77.46727 | 9104 ft | 276 kts | 11° |
| 2026-04-24 00:04 | 38.30385 | -77.46294 | 8867 ft | 267 kts | 0° |
| 2026-04-24 00:05 | 38.32205 | -77.46112 | 8762 ft | 258 kts | 0° |
| 2026-04-24 00:05 | 38.33963 | -77.45930 | 8652 ft | 249 kts | 0° |
| 2026-04-24 00:05 | 38.35663 | -77.45755 | 8530 ft | 241 kts | 0° |
| 2026-04-24 00:05 | 38.37311 | -77.45585 | 8394 ft | 235 kts | 0° |
| 2026-04-24 00:06 | 38.38933 | -77.45419 | 8293 ft | 233 kts | 0° |
| 2026-04-24 00:06 | 38.40546 | -77.45256 | 8175 ft | 232 kts | 0° |
| 2026-04-24 00:06 | 38.42156 | -77.45094 | 8057 ft | 232 kts | 0° |
| 2026-04-24 00:06 | 38.43764 | -77.44931 | 7941 ft | 232 kts | 0° |
| 2026-04-24 00:07 | 38.45370 | -77.44767 | 7827 ft | 231 kts | 1° |
| 2026-04-24 00:07 | 38.46966 | -77.44604 | 7707 ft | 230 kts | 1° |
| 2026-04-24 00:07 | 38.48555 | -77.44441 | 7593 ft | 229 kts | 1° |
| 2026-04-24 00:07 | 38.50143 | -77.44280 | 7479 ft | 229 kts | 0° |
| 2026-04-24 00:08 | 38.51727 | -77.44189 | 7362 ft | 228 kts | 357° |
| 2026-04-24 00:08 | 38.53310 | -77.44164 | 7254 ft | 227 kts | 356° |
| 2026-04-24 00:08 | 38.54886 | -77.44155 | 7143 ft | 227 kts | 356° |
| 2026-04-24 00:08 | 38.56464 | -77.44146 | 7026 ft | 226 kts | 356° |
| 2026-04-24 00:09 | 38.58047 | -77.44135 | 6739 ft | 228 kts | 357° |
| 2026-04-24 00:09 | 38.59636 | -77.44120 | 6424 ft | 229 kts | 357° |
| 2026-04-24 00:09 | 38.61227 | -77.44102 | 6099 ft | 229 kts | 357° |
| 2026-04-24 00:09 | 38.62812 | -77.44081 | 5824 ft | 226 kts | 357° |
| 2026-04-24 00:10 | 38.64377 | -77.44060 | 5592 ft | 224 kts | 358° |
| 2026-04-24 00:10 | 38.65933 | -77.44038 | 5312 ft | 223 kts | 358° |
| 2026-04-24 00:10 | 38.67482 | -77.44015 | 5031 ft | 223 kts | 359° |
| 2026-04-24 00:10 | 38.69034 | -77.43992 | 4744 ft | 222 kts | 359° |
| 2026-04-24 00:11 | 38.70581 | -77.43969 | 4457 ft | 222 kts | 359° |
| 2026-04-24 00:11 | 38.72125 | -77.43946 | 4160 ft | 221 kts | 359° |
| 2026-04-24 00:11 | 38.73629 | -77.43924 | 3873 ft | 217 kts | 359° |
| 2026-04-24 00:11 | 38.75150 | -77.43901 | 3587 ft | 214 kts | 359° |
| 2026-04-24 00:12 | 38.76613 | -77.43879 | 3316 ft | 211 kts | 359° |
| 2026-04-24 00:12 | 38.78072 | -77.43858 | 3082 ft | 205 kts | 359° |
| 2026-04-24 00:12 | 38.79485 | -77.43836 | 2778 ft | 200 kts | 359° |
| 2026-04-24 00:12 | 38.80832 | -77.43816 | 2514 ft | 186 kts | 359° |
| 2026-04-24 00:13 | 38.82074 | -77.43797 | 2286 ft | 171 kts | 359° |
| 2026-04-24 00:13 | 38.83226 | -77.43780 | 2062 ft | 159 kts | 359° |
| 2026-04-24 00:13 | 38.84313 | -77.43764 | 1850 ft | 154 kts | 359° |
| 2026-04-24 00:13 | 38.85379 | -77.43749 | 1667 ft | 153 kts | 359° |
| 2026-04-24 00:14 | 38.86440 | -77.43733 | 1464 ft | 152 kts | 360° |
| 2026-04-24 00:14 | 38.87497 | -77.43717 | 1268 ft | 151 kts | 359° |
| 2026-04-24 00:14 | 38.88548 | -77.43702 | 1081 ft | 151 kts | 360° |
| 2026-04-24 00:14 | 38.89594 | -77.43688 | 898 ft | 149 kts | 360° |
| 2026-04-24 00:15 | 38.90629 | -77.43673 | 709 ft | 148 kts | 1° |
| 2026-04-24 00:15 | 38.91653 | -77.43648 | 510 ft | 147 kts | 0° |
| 2026-04-24 00:15 | 38.92669 | -77.43641 | 333 ft | 146 kts | 2° |
| 2026-04-24 00:15 | 38.93599 | -77.43627 | 299 ft | 113 kts | 1° |
| 2026-04-24 00:16 | 38.94106 | -77.43621 | 301 ft | 50 kts | 359° |
| 2026-04-24 00:16 | 38.94348 | -77.43632 | 301 ft | 20 kts | 351° |
| 2026-04-24 00:16 | 38.94465 | -77.43691 | 302 ft | 19 kts | 332° |
| 2026-04-24 00:16 | 38.94583 | -77.43776 | 300 ft | 15 kts | 331° |
| 2026-04-24 00:17 | 38.94605 | -77.43791 | 302 ft | 2 kts | 331° |
| 2026-04-24 00:17 | 38.94630 | -77.43818 | 300 ft | 7 kts | 311° |
| 2026-04-24 00:17 | 38.94645 | -77.43887 | 302 ft | 9 kts | 271° |
| 2026-04-24 00:17 | 38.94646 | -77.43978 | 300 ft | 11 kts | 282° |
| 2026-04-24 00:18 | 38.94647 | -77.44038 | 300 ft | 4 kts | 231° |
| 2026-04-24 00:18 | 38.94622 | -77.44055 | 302 ft | 5 kts | 209° |
| 2026-04-24 00:18 | 38.94589 | -77.44084 | 300 ft | 7 kts | 216° |
| 2026-04-24 00:18 | 38.94574 | -77.44099 | 302 ft | 0 kts | 216° |